sensor_id;sensor_type;location;lat;lon;timestamp;P1;P2;P0
78678;PMS5003;67994;59.334;13.528;2024-03-08T00:00:02;27.7;22.8;
78678;PMS5003;67994;59.334;13.528;2024-03-08T00:01:00;27.7;22.8;
78678;PMS5003;67994;59.334;13.528;2024-03-08T00:02:01;32.1;24.4;
78678;PMS5003;67994;59.334;13.528;2024-03-08T00:03:01;32.1;24.4;
78678;PMS5003;67994;59.334;13.528;2024-03-08T00:04:00;32.1;24.4;
78678;PMS5003;67994;59.334;13.528;2024-03-08T00:05:00;32.1;24.4;
78678;PMS5003;67994;59.334;13.528;2024-03-08T00:06:01;32.1;24.4;
78678;PMS5003;67994;59.334;13.528;2024-03-08T00:07:01;23.5;20.1;
78678;PMS5003;67994;59.334;13.528;2024-03-08T00:08:00;23.5;20.1;
78678;PMS5003;67994;59.334;13.528;2024-03-08T00:09:00;23.5;20.1;
78678;PMS5003;67994;59.334;13.528;2024-03-08T00:10:01;23.5;20.1;
78678;PMS5003;67994;59.334;13.528;2024-03-08T00:11:00;23.5;20.1;
78678;PMS5003;67994;59.334;13.528;2024-03-08T00:12:00;26.1;21.0;
78678;PMS5003;67994;59.334;13.528;2024-03-08T00:13:00;26.1;21.0;
78678;PMS5003;67994;59.334;13.528;2024-03-08T00:14:01;26.1;21.0;
78678;PMS5003;67994;59.334;13.528;2024-03-08T00:15:00;26.1;21.0;
78678;PMS5003;67994;59.334;13.528;2024-03-08T00:16:00;26.1;21.0;
78678;PMS5003;67994;59.334;13.528;2024-03-08T00:17:00;27.6;19.2;
78678;PMS5003;67994;59.334;13.528;2024-03-08T00:18:00;27.6;19.2;
78678;PMS5003;67994;59.334;13.528;2024-03-08T00:19:00;27.6;19.2;
78678;PMS5003;67994;59.334;13.528;2024-03-08T00:20:00;27.6;19.2;
78678;PMS5003;67994;59.334;13.528;2024-03-08T00:21:00;27.6;19.2;
78678;PMS5003;67994;59.334;13.528;2024-03-08T00:22:00;34.0;29.2;
78678;PMS5003;67994;59.334;13.528;2024-03-08T00:23:00;34.0;29.2;
78678;PMS5003;67994;59.334;13.528;2024-03-08T00:24:00;34.0;29.2;
78678;PMS5003;67994;59.334;13.528;2024-03-08T00:25:00;34.0;29.2;
78678;PMS5003;67994;59.334;13.528;2024-03-08T00:26:00;34.0;29.2;
78678;PMS5003;67994;59.334;13.528;2024-03-08T00:27:00;34.6;26.4;
78678;PMS5003;67994;59.334;13.528;2024-03-08T00:28:00;34.6;26.4;
78678;PMS5003;67994;59.334;13.528;2024-03-08T00:29:00;34.6;26.4;
78678;PMS5003;67994;59.334;13.528;2024-03-08T00:30:01;34.6;26.4;
78678;PMS5003;67994;59.334;13.528;2024-03-08T00:31:00;34.6;26.4;
78678;PMS5003;67994;59.334;13.528;2024-03-08T00:32:00;28.1;25.1;
78678;PMS5003;67994;59.334;13.528;2024-03-08T00:33:00;28.1;25.1;
78678;PMS5003;67994;59.334;13.528;2024-03-08T00:34:00;28.1;25.1;
78678;PMS5003;67994;59.334;13.528;2024-03-08T00:35:00;28.1;25.1;
78678;PMS5003;67994;59.334;13.528;2024-03-08T00:36:00;28.1;25.1;
78678;PMS5003;67994;59.334;13.528;2024-03-08T00:37:00;24.4;19.0;
78678;PMS5003;67994;59.334;13.528;2024-03-08T00:38:00;24.4;19.0;
78678;PMS5003;67994;59.334;13.528;2024-03-08T00:39:00;24.4;19.0;
78678;PMS5003;67994;59.334;13.528;2024-03-08T00:40:00;24.4;19.0;
78678;PMS5003;67994;59.334;13.528;2024-03-08T00:41:00;24.4;19.0;
78678;PMS5003;67994;59.334;13.528;2024-03-08T00:42:00;31.5;20.2;
78678;PMS5003;67994;59.334;13.528;2024-03-08T00:43:00;31.5;20.2;
78678;PMS5003;67994;59.334;13.528;2024-03-08T00:44:00;31.5;20.2;
78678;PMS5003;67994;59.334;13.528;2024-03-08T00:45:00;31.5;20.2;
78678;PMS5003;67994;59.334;13.528;2024-03-08T00:46:00;31.5;20.2;
78678;PMS5003;67994;59.334;13.528;2024-03-08T00:47:00;29.8;26.8;
78678;PMS5003;67994;59.334;13.528;2024-03-08T00:48:00;29.8;26.8;
78678;PMS5003;67994;59.334;13.528;2024-03-08T00:49:00;29.8;26.8;
78678;PMS5003;67994;59.334;13.528;2024-03-08T00:50:01;29.8;26.8;
78678;PMS5003;67994;59.334;13.528;2024-03-08T00:51:00;29.8;26.8;
78678;PMS5003;67994;59.334;13.528;2024-03-08T00:52:00;29.1;22.1;
78678;PMS5003;67994;59.334;13.528;2024-03-08T00:53:00;29.1;22.1;
78678;PMS5003;67994;59.334;13.528;2024-03-08T00:54:00;29.1;22.1;
78678;PMS5003;67994;59.334;13.528;2024-03-08T00:55:00;29.1;22.1;
78678;PMS5003;67994;59.334;13.528;2024-03-08T00:56:00;29.1;22.1;
78678;PMS5003;67994;59.334;13.528;2024-03-08T00:57:00;19.3;14.5;
78678;PMS5003;67994;59.334;13.528;2024-03-08T00:58:00;19.3;14.5;
78678;PMS5003;67994;59.334;13.528;2024-03-08T00:59:00;19.3;14.5;
78678;PMS5003;67994;59.334;13.528;2024-03-08T01:00:02;19.3;14.5;
78678;PMS5003;67994;59.334;13.528;2024-03-08T01:01:00;19.3;14.5;
78678;PMS5003;67994;59.334;13.528;2024-03-08T01:02:01;24.9;19.6;
78678;PMS5003;67994;59.334;13.528;2024-03-08T01:03:00;24.9;19.6;
78678;PMS5003;67994;59.334;13.528;2024-03-08T01:04:00;24.9;19.6;
78678;PMS5003;67994;59.334;13.528;2024-03-08T01:05:00;24.9;19.6;
78678;PMS5003;67994;59.334;13.528;2024-03-08T01:06:00;24.9;19.6;
78678;PMS5003;67994;59.334;13.528;2024-03-08T01:07:00;30.0;24.4;
78678;PMS5003;67994;59.334;13.528;2024-03-08T01:08:00;30.0;24.4;
78678;PMS5003;67994;59.334;13.528;2024-03-08T01:09:00;30.0;24.4;
78678;PMS5003;67994;59.334;13.528;2024-03-08T01:10:00;30.0;24.4;
78678;PMS5003;67994;59.334;13.528;2024-03-08T01:11:00;30.0;24.4;
78678;PMS5003;67994;59.334;13.528;2024-03-08T01:12:00;19.9;16.9;
78678;PMS5003;67994;59.334;13.528;2024-03-08T01:13:00;19.9;16.9;
78678;PMS5003;67994;59.334;13.528;2024-03-08T01:14:00;19.9;16.9;
78678;PMS5003;67994;59.334;13.528;2024-03-08T01:15:00;19.9;16.9;
78678;PMS5003;67994;59.334;13.528;2024-03-08T01:16:00;19.9;16.9;
78678;PMS5003;67994;59.334;13.528;2024-03-08T01:17:00;19.3;15.4;
78678;PMS5003;67994;59.334;13.528;2024-03-08T01:18:01;19.3;15.4;
78678;PMS5003;67994;59.334;13.528;2024-03-08T01:19:00;19.3;15.4;
78678;PMS5003;67994;59.334;13.528;2024-03-08T01:20:00;19.3;15.4;
78678;PMS5003;67994;59.334;13.528;2024-03-08T01:21:00;19.3;15.4;
78678;PMS5003;67994;59.334;13.528;2024-03-08T01:22:00;14.4;13.5;
78678;PMS5003;67994;59.334;13.528;2024-03-08T01:23:00;14.4;13.5;
78678;PMS5003;67994;59.334;13.528;2024-03-08T01:24:00;14.4;13.5;
78678;PMS5003;67994;59.334;13.528;2024-03-08T01:25:00;14.4;13.5;
78678;PMS5003;67994;59.334;13.528;2024-03-08T01:26:00;14.4;13.5;
78678;PMS5003;67994;59.334;13.528;2024-03-08T01:27:00;20.2;14.5;
78678;PMS5003;67994;59.334;13.528;2024-03-08T01:28:00;20.2;14.5;
78678;PMS5003;67994;59.334;13.528;2024-03-08T01:29:00;20.2;14.5;
78678;PMS5003;67994;59.334;13.528;2024-03-08T01:30:00;20.2;14.5;
78678;PMS5003;67994;59.334;13.528;2024-03-08T01:31:00;20.2;14.5;
78678;PMS5003;67994;59.334;13.528;2024-03-08T01:32:00;17.7;15.9;
78678;PMS5003;67994;59.334;13.528;2024-03-08T01:33:00;17.7;15.9;
78678;PMS5003;67994;59.334;13.528;2024-03-08T01:34:01;17.7;15.9;
78678;PMS5003;67994;59.334;13.528;2024-03-08T01:35:00;17.7;15.9;
78678;PMS5003;67994;59.334;13.528;2024-03-08T01:36:00;17.7;15.9;
78678;PMS5003;67994;59.334;13.528;2024-03-08T01:37:00;13.5;9.6;
78678;PMS5003;67994;59.334;13.528;2024-03-08T01:38:00;13.5;9.6;
78678;PMS5003;67994;59.334;13.528;2024-03-08T01:39:00;13.5;9.6;
78678;PMS5003;67994;59.334;13.528;2024-03-08T01:40:00;13.5;9.6;
78678;PMS5003;67994;59.334;13.528;2024-03-08T01:41:00;13.5;9.6;
78678;PMS5003;67994;59.334;13.528;2024-03-08T01:42:00;18.0;13.8;
78678;PMS5003;67994;59.334;13.528;2024-03-08T01:44:00;18.0;13.8;
78678;PMS5003;67994;59.334;13.528;2024-03-08T01:45:00;18.0;13.8;
78678;PMS5003;67994;59.334;13.528;2024-03-08T01:46:00;18.0;13.8;
78678;PMS5003;67994;59.334;13.528;2024-03-08T01:47:00;8.7;8.7;
78678;PMS5003;67994;59.334;13.528;2024-03-08T01:48:00;8.7;8.7;
78678;PMS5003;67994;59.334;13.528;2024-03-08T01:49:00;8.7;8.7;
78678;PMS5003;67994;59.334;13.528;2024-03-08T01:50:00;8.7;8.7;
78678;PMS5003;67994;59.334;13.528;2024-03-08T01:51:00;8.7;8.7;
78678;PMS5003;67994;59.334;13.528;2024-03-08T01:52:00;12.6;11.2;
78678;PMS5003;67994;59.334;13.528;2024-03-08T01:53:00;12.6;11.2;
78678;PMS5003;67994;59.334;13.528;2024-03-08T01:54:00;12.6;11.2;
78678;PMS5003;67994;59.334;13.528;2024-03-08T01:55:01;12.6;11.2;
78678;PMS5003;67994;59.334;13.528;2024-03-08T01:56:00;12.6;11.2;
78678;PMS5003;67994;59.334;13.528;2024-03-08T01:57:00;11.2;10.6;
78678;PMS5003;67994;59.334;13.528;2024-03-08T01:58:00;11.2;10.6;
78678;PMS5003;67994;59.334;13.528;2024-03-08T01:59:01;11.2;10.6;
78678;PMS5003;67994;59.334;13.528;2024-03-08T02:00:01;11.2;10.6;
78678;PMS5003;67994;59.334;13.528;2024-03-08T02:01:00;11.2;10.6;
78678;PMS5003;67994;59.334;13.528;2024-03-08T02:02:01;17.8;11.2;
78678;PMS5003;67994;59.334;13.528;2024-03-08T02:03:00;17.8;11.2;
78678;PMS5003;67994;59.334;13.528;2024-03-08T02:04:00;17.8;11.2;
78678;PMS5003;67994;59.334;13.528;2024-03-08T02:05:00;17.8;11.2;
78678;PMS5003;67994;59.334;13.528;2024-03-08T02:06:00;17.8;11.2;
78678;PMS5003;67994;59.334;13.528;2024-03-08T02:07:00;15.6;12.3;
78678;PMS5003;67994;59.334;13.528;2024-03-08T02:08:00;15.6;12.3;
78678;PMS5003;67994;59.334;13.528;2024-03-08T02:09:00;15.6;12.3;
78678;PMS5003;67994;59.334;13.528;2024-03-08T02:10:00;15.6;12.3;
78678;PMS5003;67994;59.334;13.528;2024-03-08T02:11:00;15.6;12.3;
78678;PMS5003;67994;59.334;13.528;2024-03-08T02:12:00;16.8;12.4;
78678;PMS5003;67994;59.334;13.528;2024-03-08T02:13:01;16.8;12.4;
78678;PMS5003;67994;59.334;13.528;2024-03-08T02:14:00;16.8;12.4;
78678;PMS5003;67994;59.334;13.528;2024-03-08T02:15:00;16.8;12.4;
78678;PMS5003;67994;59.334;13.528;2024-03-08T02:16:00;16.8;12.4;
78678;PMS5003;67994;59.334;13.528;2024-03-08T02:17:00;12.0;9.3;
78678;PMS5003;67994;59.334;13.528;2024-03-08T02:18:00;12.0;9.3;
78678;PMS5003;67994;59.334;13.528;2024-03-08T02:19:00;12.0;9.3;
78678;PMS5003;67994;59.334;13.528;2024-03-08T02:20:00;12.0;9.3;
78678;PMS5003;67994;59.334;13.528;2024-03-08T02:21:01;12.0;9.3;
78678;PMS5003;67994;59.334;13.528;2024-03-08T02:22:01;16.6;13.0;
78678;PMS5003;67994;59.334;13.528;2024-03-08T02:23:00;16.6;13.0;
78678;PMS5003;67994;59.334;13.528;2024-03-08T02:24:00;16.6;13.0;
78678;PMS5003;67994;59.334;13.528;2024-03-08T02:25:00;16.6;13.0;
78678;PMS5003;67994;59.334;13.528;2024-03-08T02:26:00;16.6;13.0;
78678;PMS5003;67994;59.334;13.528;2024-03-08T02:27:00;18.1;11.1;
78678;PMS5003;67994;59.334;13.528;2024-03-08T02:28:00;18.1;11.1;
78678;PMS5003;67994;59.334;13.528;2024-03-08T02:29:00;18.1;11.1;
78678;PMS5003;67994;59.334;13.528;2024-03-08T02:30:00;18.1;11.1;
78678;PMS5003;67994;59.334;13.528;2024-03-08T02:31:00;18.1;11.1;
78678;PMS5003;67994;59.334;13.528;2024-03-08T02:32:00;9.3;6.4;
78678;PMS5003;67994;59.334;13.528;2024-03-08T02:33:00;9.3;6.4;
78678;PMS5003;67994;59.334;13.528;2024-03-08T02:34:00;9.3;6.4;
78678;PMS5003;67994;59.334;13.528;2024-03-08T02:35:00;9.3;6.4;
78678;PMS5003;67994;59.334;13.528;2024-03-08T02:36:00;9.3;6.4;
78678;PMS5003;67994;59.334;13.528;2024-03-08T02:37:01;6.9;6.3;
78678;PMS5003;67994;59.334;13.528;2024-03-08T02:38:01;6.9;6.3;
78678;PMS5003;67994;59.334;13.528;2024-03-08T02:39:01;6.9;6.3;
78678;PMS5003;67994;59.334;13.528;2024-03-08T02:40:00;6.9;6.3;
78678;PMS5003;67994;59.334;13.528;2024-03-08T02:41:00;6.9;6.3;
78678;PMS5003;67994;59.334;13.528;2024-03-08T02:42:00;9.0;8.2;
78678;PMS5003;67994;59.334;13.528;2024-03-08T02:43:00;9.0;8.2;
78678;PMS5003;67994;59.334;13.528;2024-03-08T02:44:00;9.0;8.2;
78678;PMS5003;67994;59.334;13.528;2024-03-08T02:45:00;9.0;8.2;
78678;PMS5003;67994;59.334;13.528;2024-03-08T02:46:00;9.0;8.2;
78678;PMS5003;67994;59.334;13.528;2024-03-08T02:47:00;13.0;11.4;
78678;PMS5003;67994;59.334;13.528;2024-03-08T02:48:00;13.0;11.4;
78678;PMS5003;67994;59.334;13.528;2024-03-08T02:49:01;13.0;11.4;
78678;PMS5003;67994;59.334;13.528;2024-03-08T02:50:00;13.0;11.4;
78678;PMS5003;67994;59.334;13.528;2024-03-08T02:51:00;13.0;11.4;
78678;PMS5003;67994;59.334;13.528;2024-03-08T02:52:00;7.2;4.2;
78678;PMS5003;67994;59.334;13.528;2024-03-08T02:53:01;7.2;4.2;
78678;PMS5003;67994;59.334;13.528;2024-03-08T02:54:00;7.2;4.2;
78678;PMS5003;67994;59.334;13.528;2024-03-08T02:55:00;7.2;4.2;
78678;PMS5003;67994;59.334;13.528;2024-03-08T02:56:00;7.2;4.2;
78678;PMS5003;67994;59.334;13.528;2024-03-08T02:57:00;12.9;7.2;
78678;PMS5003;67994;59.334;13.528;2024-03-08T02:58:00;12.9;7.2;
78678;PMS5003;67994;59.334;13.528;2024-03-08T02:59:00;12.9;7.2;
78678;PMS5003;67994;59.334;13.528;2024-03-08T03:00:00;12.9;7.2;
78678;PMS5003;67994;59.334;13.528;2024-03-08T03:01:00;12.9;7.2;
78678;PMS5003;67994;59.334;13.528;2024-03-08T03:02:00;7.2;7.0;
78678;PMS5003;67994;59.334;13.528;2024-03-08T03:03:00;7.2;7.0;
78678;PMS5003;67994;59.334;13.528;2024-03-08T03:04:00;7.2;7.0;
78678;PMS5003;67994;59.334;13.528;2024-03-08T03:05:00;7.2;7.0;
78678;PMS5003;67994;59.334;13.528;2024-03-08T03:06:00;7.2;7.0;
78678;PMS5003;67994;59.334;13.528;2024-03-08T03:07:00;11.4;9.7;
78678;PMS5003;67994;59.334;13.528;2024-03-08T03:08:01;11.4;9.7;
78678;PMS5003;67994;59.334;13.528;2024-03-08T03:09:00;11.4;9.7;
78678;PMS5003;67994;59.334;13.528;2024-03-08T03:10:00;11.4;9.7;
78678;PMS5003;67994;59.334;13.528;2024-03-08T03:11:00;11.4;9.7;
78678;PMS5003;67994;59.334;13.528;2024-03-08T03:12:00;9.0;6.0;
78678;PMS5003;67994;59.334;13.528;2024-03-08T03:13:00;9.0;6.0;
78678;PMS5003;67994;59.334;13.528;2024-03-08T03:14:00;9.0;6.0;
78678;PMS5003;67994;59.334;13.528;2024-03-08T03:15:00;9.0;6.0;
78678;PMS5003;67994;59.334;13.528;2024-03-08T03:16:00;9.0;6.0;
78678;PMS5003;67994;59.334;13.528;2024-03-08T03:17:00;6.7;6.7;
78678;PMS5003;67994;59.334;13.528;2024-03-08T03:18:00;6.7;6.7;
78678;PMS5003;67994;59.334;13.528;2024-03-08T03:19:00;6.7;6.7;
78678;PMS5003;67994;59.334;13.528;2024-03-08T03:20:00;6.7;6.7;
78678;PMS5003;67994;59.334;13.528;2024-03-08T03:21:00;6.7;6.7;
78678;PMS5003;67994;59.334;13.528;2024-03-08T03:22:01;7.2;6.0;
78678;PMS5003;67994;59.334;13.528;2024-03-08T03:23:00;7.2;6.0;
78678;PMS5003;67994;59.334;13.528;2024-03-08T03:24:00;7.2;6.0;
78678;PMS5003;67994;59.334;13.528;2024-03-08T03:25:00;7.2;6.0;
78678;PMS5003;67994;59.334;13.528;2024-03-08T03:26:00;7.2;6.0;
78678;PMS5003;67994;59.334;13.528;2024-03-08T03:27:00;7.2;7.2;
78678;PMS5003;67994;59.334;13.528;2024-03-08T03:28:01;7.2;7.2;
78678;PMS5003;67994;59.334;13.528;2024-03-08T03:29:00;7.2;7.2;
78678;PMS5003;67994;59.334;13.528;2024-03-08T03:30:00;7.2;7.2;
78678;PMS5003;67994;59.334;13.528;2024-03-08T03:31:00;7.2;7.2;
78678;PMS5003;67994;59.334;13.528;2024-03-08T03:32:00;12.7;8.8;
78678;PMS5003;67994;59.334;13.528;2024-03-08T03:33:00;12.7;8.8;
78678;PMS5003;67994;59.334;13.528;2024-03-08T03:34:00;12.7;8.8;
78678;PMS5003;67994;59.334;13.528;2024-03-08T03:35:00;12.7;8.8;
78678;PMS5003;67994;59.334;13.528;2024-03-08T03:36:01;12.7;8.8;
78678;PMS5003;67994;59.334;13.528;2024-03-08T03:37:00;8.4;6.6;
78678;PMS5003;67994;59.334;13.528;2024-03-08T03:38:00;8.4;6.6;
78678;PMS5003;67994;59.334;13.528;2024-03-08T03:39:00;8.4;6.6;
78678;PMS5003;67994;59.334;13.528;2024-03-08T03:40:00;8.4;6.6;
78678;PMS5003;67994;59.334;13.528;2024-03-08T03:41:00;8.4;6.6;
78678;PMS5003;67994;59.334;13.528;2024-03-08T03:42:00;11.2;7.8;
78678;PMS5003;67994;59.334;13.528;2024-03-08T03:43:00;11.2;7.8;
78678;PMS5003;67994;59.334;13.528;2024-03-08T03:44:00;11.2;7.8;
78678;PMS5003;67994;59.334;13.528;2024-03-08T03:45:00;11.2;7.8;
78678;PMS5003;67994;59.334;13.528;2024-03-08T03:46:00;11.2;7.8;
78678;PMS5003;67994;59.334;13.528;2024-03-08T03:47:00;13.6;9.0;
78678;PMS5003;67994;59.334;13.528;2024-03-08T03:48:01;13.6;9.0;
78678;PMS5003;67994;59.334;13.528;2024-03-08T03:49:00;13.6;9.0;
78678;PMS5003;67994;59.334;13.528;2024-03-08T03:50:00;13.6;9.0;
78678;PMS5003;67994;59.334;13.528;2024-03-08T03:51:00;13.6;9.0;
78678;PMS5003;67994;59.334;13.528;2024-03-08T03:52:01;6.6;4.2;
78678;PMS5003;67994;59.334;13.528;2024-03-08T03:53:00;6.6;4.2;
78678;PMS5003;67994;59.334;13.528;2024-03-08T03:54:00;6.6;4.2;
78678;PMS5003;67994;59.334;13.528;2024-03-08T03:55:00;6.6;4.2;
78678;PMS5003;67994;59.334;13.528;2024-03-08T03:56:00;6.6;4.2;
78678;PMS5003;67994;59.334;13.528;2024-03-08T03:57:00;10.0;9.0;
78678;PMS5003;67994;59.334;13.528;2024-03-08T03:58:00;10.0;9.0;
78678;PMS5003;67994;59.334;13.528;2024-03-08T03:59:00;10.0;9.0;
78678;PMS5003;67994;59.334;13.528;2024-03-08T04:00:00;10.0;9.0;
78678;PMS5003;67994;59.334;13.528;2024-03-08T04:01:00;10.0;9.0;
78678;PMS5003;67994;59.334;13.528;2024-03-08T04:02:00;11.7;6.4;
78678;PMS5003;67994;59.334;13.528;2024-03-08T04:03:00;11.7;6.4;
78678;PMS5003;67994;59.334;13.528;2024-03-08T04:04:00;11.7;6.4;
78678;PMS5003;67994;59.334;13.528;2024-03-08T04:05:00;11.7;6.4;
78678;PMS5003;67994;59.334;13.528;2024-03-08T04:06:00;11.7;6.4;
78678;PMS5003;67994;59.334;13.528;2024-03-08T04:07:00;8.2;8.2;
78678;PMS5003;67994;59.334;13.528;2024-03-08T04:08:00;8.2;8.2;
78678;PMS5003;67994;59.334;13.528;2024-03-08T04:09:00;8.2;8.2;
78678;PMS5003;67994;59.334;13.528;2024-03-08T04:10:00;8.2;8.2;
78678;PMS5003;67994;59.334;13.528;2024-03-08T04:11:00;8.2;8.2;
78678;PMS5003;67994;59.334;13.528;2024-03-08T04:12:00;11.4;6.7;
78678;PMS5003;67994;59.334;13.528;2024-03-08T04:13:00;11.4;6.7;
78678;PMS5003;67994;59.334;13.528;2024-03-08T04:14:00;11.4;6.7;
78678;PMS5003;67994;59.334;13.528;2024-03-08T04:15:00;11.4;6.7;
78678;PMS5003;67994;59.334;13.528;2024-03-08T04:16:00;11.4;6.7;
78678;PMS5003;67994;59.334;13.528;2024-03-08T04:17:00;6.0;4.2;
78678;PMS5003;67994;59.334;13.528;2024-03-08T04:18:00;6.0;4.2;
78678;PMS5003;67994;59.334;13.528;2024-03-08T04:19:00;6.0;4.2;
78678;PMS5003;67994;59.334;13.528;2024-03-08T04:20:00;6.0;4.2;
78678;PMS5003;67994;59.334;13.528;2024-03-08T04:21:00;6.0;4.2;
78678;PMS5003;67994;59.334;13.528;2024-03-08T04:22:01;9.0;6.7;
78678;PMS5003;67994;59.334;13.528;2024-03-08T04:23:00;9.0;6.7;
78678;PMS5003;67994;59.334;13.528;2024-03-08T04:24:00;9.0;6.7;
78678;PMS5003;67994;59.334;13.528;2024-03-08T04:25:00;9.0;6.7;
78678;PMS5003;67994;59.334;13.528;2024-03-08T04:26:01;9.0;6.7;
78678;PMS5003;67994;59.334;13.528;2024-03-08T04:27:00;9.1;4.6;
78678;PMS5003;67994;59.334;13.528;2024-03-08T04:28:00;9.1;4.6;
78678;PMS5003;67994;59.334;13.528;2024-03-08T04:29:00;9.1;4.6;
78678;PMS5003;67994;59.334;13.528;2024-03-08T04:30:01;9.1;4.6;
78678;PMS5003;67994;59.334;13.528;2024-03-08T04:31:01;9.1;4.6;
78678;PMS5003;67994;59.334;13.528;2024-03-08T04:32:02;9.7;8.4;
78678;PMS5003;67994;59.334;13.528;2024-03-08T04:33:01;9.7;8.4;
78678;PMS5003;67994;59.334;13.528;2024-03-08T04:34:00;9.7;8.4;
78678;PMS5003;67994;59.334;13.528;2024-03-08T04:35:00;9.7;8.4;
78678;PMS5003;67994;59.334;13.528;2024-03-08T04:36:00;9.7;8.4;
78678;PMS5003;67994;59.334;13.528;2024-03-08T04:37:00;9.6;8.4;
78678;PMS5003;67994;59.334;13.528;2024-03-08T04:38:00;9.6;8.4;
78678;PMS5003;67994;59.334;13.528;2024-03-08T04:39:02;9.6;8.4;
78678;PMS5003;67994;59.334;13.528;2024-03-08T04:40:00;9.6;8.4;
78678;PMS5003;67994;59.334;13.528;2024-03-08T04:41:00;9.6;8.4;
78678;PMS5003;67994;59.334;13.528;2024-03-08T04:42:01;6.6;3.4;
78678;PMS5003;67994;59.334;13.528;2024-03-08T04:43:00;6.6;3.4;
78678;PMS5003;67994;59.334;13.528;2024-03-08T04:44:00;6.6;3.4;
78678;PMS5003;67994;59.334;13.528;2024-03-08T04:45:00;6.6;3.4;
78678;PMS5003;67994;59.334;13.528;2024-03-08T04:46:00;6.6;3.4;
78678;PMS5003;67994;59.334;13.528;2024-03-08T04:47:00;7.0;5.4;
78678;PMS5003;67994;59.334;13.528;2024-03-08T04:48:00;7.0;5.4;
78678;PMS5003;67994;59.334;13.528;2024-03-08T04:49:00;7.0;5.4;
78678;PMS5003;67994;59.334;13.528;2024-03-08T04:50:00;7.0;5.4;
78678;PMS5003;67994;59.334;13.528;2024-03-08T04:51:00;7.0;5.4;
78678;PMS5003;67994;59.334;13.528;2024-03-08T04:52:00;5.2;5.2;
78678;PMS5003;67994;59.334;13.528;2024-03-08T04:53:00;5.2;5.2;
78678;PMS5003;67994;59.334;13.528;2024-03-08T04:54:00;5.2;5.2;
78678;PMS5003;67994;59.334;13.528;2024-03-08T04:55:00;5.2;5.2;
78678;PMS5003;67994;59.334;13.528;2024-03-08T04:56:00;5.2;5.2;
78678;PMS5003;67994;59.334;13.528;2024-03-08T04:57:00;6.7;4.0;
78678;PMS5003;67994;59.334;13.528;2024-03-08T04:58:00;6.7;4.0;
78678;PMS5003;67994;59.334;13.528;2024-03-08T04:59:00;6.7;4.0;
78678;PMS5003;67994;59.334;13.528;2024-03-08T05:00:01;6.7;4.0;
78678;PMS5003;67994;59.334;13.528;2024-03-08T05:01:00;6.7;4.0;
78678;PMS5003;67994;59.334;13.528;2024-03-08T05:02:00;3.0;3.0;
78678;PMS5003;67994;59.334;13.528;2024-03-08T05:03:00;3.0;3.0;
78678;PMS5003;67994;59.334;13.528;2024-03-08T05:04:00;3.0;3.0;
78678;PMS5003;67994;59.334;13.528;2024-03-08T05:05:00;3.0;3.0;
78678;PMS5003;67994;59.334;13.528;2024-03-08T05:06:00;3.0;3.0;
78678;PMS5003;67994;59.334;13.528;2024-03-08T05:07:00;8.7;7.0;
78678;PMS5003;67994;59.334;13.528;2024-03-08T05:08:00;8.7;7.0;
78678;PMS5003;67994;59.334;13.528;2024-03-08T05:09:00;8.7;7.0;
78678;PMS5003;67994;59.334;13.528;2024-03-08T05:10:00;8.7;7.0;
78678;PMS5003;67994;59.334;13.528;2024-03-08T05:11:00;8.7;7.0;
78678;PMS5003;67994;59.334;13.528;2024-03-08T05:12:00;6.0;3.0;
78678;PMS5003;67994;59.334;13.528;2024-03-08T05:13:00;6.0;3.0;
78678;PMS5003;67994;59.334;13.528;2024-03-08T05:14:00;6.0;3.0;
78678;PMS5003;67994;59.334;13.528;2024-03-08T05:15:00;6.0;3.0;
78678;PMS5003;67994;59.334;13.528;2024-03-08T05:16:00;6.0;3.0;
78678;PMS5003;67994;59.334;13.528;2024-03-08T05:17:00;9.1;7.0;
78678;PMS5003;67994;59.334;13.528;2024-03-08T05:18:00;9.1;7.0;
78678;PMS5003;67994;59.334;13.528;2024-03-08T05:19:00;9.1;7.0;
78678;PMS5003;67994;59.334;13.528;2024-03-08T05:20:00;9.1;7.0;
78678;PMS5003;67994;59.334;13.528;2024-03-08T05:21:00;9.1;7.0;
78678;PMS5003;67994;59.334;13.528;2024-03-08T05:22:00;1.8;1.8;
78678;PMS5003;67994;59.334;13.528;2024-03-08T05:23:00;1.8;1.8;
78678;PMS5003;67994;59.334;13.528;2024-03-08T05:24:00;1.8;1.8;
78678;PMS5003;67994;59.334;13.528;2024-03-08T05:25:00;1.8;1.8;
78678;PMS5003;67994;59.334;13.528;2024-03-08T05:26:00;1.8;1.8;
78678;PMS5003;67994;59.334;13.528;2024-03-08T05:27:00;6.3;6.3;
78678;PMS5003;67994;59.334;13.528;2024-03-08T05:28:00;6.3;6.3;
78678;PMS5003;67994;59.334;13.528;2024-03-08T05:29:00;6.3;6.3;
78678;PMS5003;67994;59.334;13.528;2024-03-08T05:30:00;6.3;6.3;
78678;PMS5003;67994;59.334;13.528;2024-03-08T05:31:00;6.3;6.3;
78678;PMS5003;67994;59.334;13.528;2024-03-08T05:32:00;6.3;6.3;
78678;PMS5003;67994;59.334;13.528;2024-03-08T05:33:00;6.3;6.3;
78678;PMS5003;67994;59.334;13.528;2024-03-08T05:34:01;6.3;6.3;
78678;PMS5003;67994;59.334;13.528;2024-03-08T05:35:00;6.3;6.3;
78678;PMS5003;67994;59.334;13.528;2024-03-08T05:36:00;6.3;6.3;
78678;PMS5003;67994;59.334;13.528;2024-03-08T05:37:00;9.7;4.8;
78678;PMS5003;67994;59.334;13.528;2024-03-08T05:38:00;9.7;4.8;
78678;PMS5003;67994;59.334;13.528;2024-03-08T05:39:00;9.7;4.8;
78678;PMS5003;67994;59.334;13.528;2024-03-08T05:40:00;9.7;4.8;
78678;PMS5003;67994;59.334;13.528;2024-03-08T05:41:00;9.7;4.8;
78678;PMS5003;67994;59.334;13.528;2024-03-08T05:42:00;4.0;4.0;
78678;PMS5003;67994;59.334;13.528;2024-03-08T05:43:00;4.0;4.0;
78678;PMS5003;67994;59.334;13.528;2024-03-08T05:44:00;4.0;4.0;
78678;PMS5003;67994;59.334;13.528;2024-03-08T05:45:00;4.0;4.0;
78678;PMS5003;67994;59.334;13.528;2024-03-08T05:46:00;4.0;4.0;
78678;PMS5003;67994;59.334;13.528;2024-03-08T05:47:00;3.7;3.7;
78678;PMS5003;67994;59.334;13.528;2024-03-08T05:48:00;3.7;3.7;
78678;PMS5003;67994;59.334;13.528;2024-03-08T05:49:00;3.7;3.7;
78678;PMS5003;67994;59.334;13.528;2024-03-08T05:50:00;3.7;3.7;
78678;PMS5003;67994;59.334;13.528;2024-03-08T05:51:00;3.7;3.7;
78678;PMS5003;67994;59.334;13.528;2024-03-08T05:52:00;9.4;7.0;
78678;PMS5003;67994;59.334;13.528;2024-03-08T05:53:00;9.4;7.0;
78678;PMS5003;67994;59.334;13.528;2024-03-08T05:54:00;9.4;7.0;
78678;PMS5003;67994;59.334;13.528;2024-03-08T05:55:00;9.4;7.0;
78678;PMS5003;67994;59.334;13.528;2024-03-08T05:56:00;9.4;7.0;
78678;PMS5003;67994;59.334;13.528;2024-03-08T05:57:00;5.7;4.0;
78678;PMS5003;67994;59.334;13.528;2024-03-08T05:58:00;5.7;4.0;
78678;PMS5003;67994;59.334;13.528;2024-03-08T05:59:00;5.7;4.0;
78678;PMS5003;67994;59.334;13.528;2024-03-08T06:00:00;5.7;4.0;
78678;PMS5003;67994;59.334;13.528;2024-03-08T06:01:00;5.7;4.0;
78678;PMS5003;67994;59.334;13.528;2024-03-08T06:02:00;9.9;7.0;
78678;PMS5003;67994;59.334;13.528;2024-03-08T06:03:00;9.9;7.0;
78678;PMS5003;67994;59.334;13.528;2024-03-08T06:04:00;9.9;7.0;
78678;PMS5003;67994;59.334;13.528;2024-03-08T06:05:00;9.9;7.0;
78678;PMS5003;67994;59.334;13.528;2024-03-08T06:06:00;9.9;7.0;
78678;PMS5003;67994;59.334;13.528;2024-03-08T06:07:00;9.4;6.4;
78678;PMS5003;67994;59.334;13.528;2024-03-08T06:08:00;9.4;6.4;
78678;PMS5003;67994;59.334;13.528;2024-03-08T06:09:00;9.4;6.4;
78678;PMS5003;67994;59.334;13.528;2024-03-08T06:10:00;9.4;6.4;
78678;PMS5003;67994;59.334;13.528;2024-03-08T06:11:00;9.4;6.4;
78678;PMS5003;67994;59.334;13.528;2024-03-08T06:12:00;9.3;5.8;
78678;PMS5003;67994;59.334;13.528;2024-03-08T06:13:00;9.3;5.8;
78678;PMS5003;67994;59.334;13.528;2024-03-08T06:14:00;9.3;5.8;